sensor_id;sensor_type;location;lat;lon;timestamp;P1;durP1;ratioP1;P2;durP2;ratioP2
65924;SDS011;66010;52.084;5.412;2023-06-10T00:00:44;11.38;;;6.47;;
65924;SDS011;66010;52.084;5.412;2023-06-10T00:03:10;12.50;;;6.20;;
65924;SDS011;66010;52.084;5.412;2023-06-10T00:05:37;12.10;;;6.50;;
65924;SDS011;66010;52.084;5.412;2023-06-10T00:08:08;12.35;;;6.35;;
65924;SDS011;66010;52.084;5.412;2023-06-10T00:10:35;11.68;;;6.50;;
65924;SDS011;66010;52.084;5.412;2023-06-10T00:13:02;9.55;;;6.18;;
65924;SDS011;66010;52.084;5.412;2023-06-10T00:15:30;12.13;;;6.70;;
65924;SDS011;66010;52.084;5.412;2023-06-10T00:17:57;10.70;;;6.43;;
65924;SDS011;66010;52.084;5.412;2023-06-10T00:20:24;11.10;;;6.18;;
65924;SDS011;66010;52.084;5.412;2023-06-10T00:22:51;10.77;;;5.75;;
65924;SDS011;66010;52.084;5.412;2023-06-10T00:25:17;10.63;;;6.15;;
65924;SDS011;66010;52.084;5.412;2023-06-10T00:27:44;9.93;;;5.63;;
65924;SDS011;66010;52.084;5.412;2023-06-10T00:30:11;11.70;;;5.95;;
65924;SDS011;66010;52.084;5.412;2023-06-10T00:32:38;11.75;;;5.97;;
65924;SDS011;66010;52.084;5.412;2023-06-10T00:35:05;11.50;;;5.80;;
65924;SDS011;66010;52.084;5.412;2023-06-10T00:37:33;11.50;;;5.97;;
65924;SDS011;66010;52.084;5.412;2023-06-10T00:40:02;10.80;;;5.90;;
65924;SDS011;66010;52.084;5.412;2023-06-10T00:42:30;10.80;;;5.45;;
65924;SDS011;66010;52.084;5.412;2023-06-10T00:44:57;9.48;;;5.88;;
65924;SDS011;66010;52.084;5.412;2023-06-10T00:47:24;11.30;;;5.40;;
65924;SDS011;66010;52.084;5.412;2023-06-10T00:49:51;10.70;;;5.30;;
65924;SDS011;66010;52.084;5.412;2023-06-10T00:52:18;11.07;;;5.20;;
65924;SDS011;66010;52.084;5.412;2023-06-10T00:54:46;10.88;;;5.20;;
65924;SDS011;66010;52.084;5.412;2023-06-10T00:57:14;10.18;;;5.10;;
65924;SDS011;66010;52.084;5.412;2023-06-10T00:59:41;8.77;;;5.10;;
65924;SDS011;66010;52.084;5.412;2023-06-10T01:02:09;10.43;;;5.53;;
65924;SDS011;66010;52.084;5.412;2023-06-10T01:04:35;9.98;;;4.95;;
65924;SDS011;66010;52.084;5.412;2023-06-10T01:09:41;9.00;;;4.82;;
65924;SDS011;66010;52.084;5.412;2023-06-10T01:12:19;11.07;;;5.15;;
65924;SDS011;66010;52.084;5.412;2023-06-10T01:14:46;10.27;;;4.82;;
65924;SDS011;66010;52.084;5.412;2023-06-10T01:17:13;9.52;;;5.20;;
65924;SDS011;66010;52.084;5.412;2023-06-10T01:19:43;9.52;;;5.00;;
65924;SDS011;66010;52.084;5.412;2023-06-10T01:22:10;9.55;;;4.80;;
65924;SDS011;66010;52.084;5.412;2023-06-10T01:24:42;9.27;;;5.15;;
65924;SDS011;66010;52.084;5.412;2023-06-10T01:27:11;10.18;;;4.90;;
65924;SDS011;66010;52.084;5.412;2023-06-10T01:29:46;11.57;;;5.32;;
65924;SDS011;66010;52.084;5.412;2023-06-10T01:32:15;10.35;;;5.10;;
65924;SDS011;66010;52.084;5.412;2023-06-10T01:34:43;10.45;;;5.18;;
65924;SDS011;66010;52.084;5.412;2023-06-10T01:39:38;10.60;;;4.60;;
65924;SDS011;66010;52.084;5.412;2023-06-10T01:42:08;10.93;;;4.90;;
65924;SDS011;66010;52.084;5.412;2023-06-10T01:44:35;10.18;;;4.80;;
65924;SDS011;66010;52.084;5.412;2023-06-10T01:47:02;9.35;;;4.70;;
65924;SDS011;66010;52.084;5.412;2023-06-10T01:49:28;9.77;;;4.63;;
65924;SDS011;66010;52.084;5.412;2023-06-10T01:51:55;11.75;;;4.90;;
65924;SDS011;66010;52.084;5.412;2023-06-10T01:54:21;10.65;;;5.05;;
65924;SDS011;66010;52.084;5.412;2023-06-10T01:56:48;8.93;;;4.32;;
65924;SDS011;66010;52.084;5.412;2023-06-10T01:59:14;8.38;;;4.45;;
65924;SDS011;66010;52.084;5.412;2023-06-10T02:01:42;10.65;;;4.85;;
65924;SDS011;66010;52.084;5.412;2023-06-10T02:04:09;8.85;;;4.55;;
65924;SDS011;66010;52.084;5.412;2023-06-10T02:06:35;7.78;;;4.40;;
65924;SDS011;66010;52.084;5.412;2023-06-10T02:09:04;9.32;;;5.25;;
65924;SDS011;66010;52.084;5.412;2023-06-10T02:11:30;10.35;;;4.90;;
65924;SDS011;66010;52.084;5.412;2023-06-10T02:13:57;9.52;;;4.47;;
65924;SDS011;66010;52.084;5.412;2023-06-10T02:16:23;9.07;;;4.28;;
65924;SDS011;66010;52.084;5.412;2023-06-10T02:18:50;9.25;;;4.43;;
65924;SDS011;66010;52.084;5.412;2023-06-10T02:21:17;9.52;;;4.93;;
65924;SDS011;66010;52.084;5.412;2023-06-10T02:23:43;11.55;;;4.53;;
65924;SDS011;66010;52.084;5.412;2023-06-10T02:26:10;9.90;;;4.25;;
65924;SDS011;66010;52.084;5.412;2023-06-10T02:28:36;9.07;;;4.90;;
65924;SDS011;66010;52.084;5.412;2023-06-10T02:31:02;11.75;;;5.10;;
65924;SDS011;66010;52.084;5.412;2023-06-10T02:33:29;8.60;;;4.70;;
65924;SDS011;66010;52.084;5.412;2023-06-10T02:35:56;9.07;;;4.70;;
65924;SDS011;66010;52.084;5.412;2023-06-10T02:38:23;9.60;;;4.45;;
65924;SDS011;66010;52.084;5.412;2023-06-10T02:40:50;9.75;;;4.65;;
65924;SDS011;66010;52.084;5.412;2023-06-10T02:43:17;11.80;;;4.90;;
65924;SDS011;66010;52.084;5.412;2023-06-10T02:45:43;9.52;;;4.40;;
65924;SDS011;66010;52.084;5.412;2023-06-10T02:48:10;9.50;;;4.53;;
65924;SDS011;66010;52.084;5.412;2023-06-10T02:50:37;12.20;;;5.00;;
65924;SDS011;66010;52.084;5.412;2023-06-10T02:53:28;8.80;;;4.50;;
65924;SDS011;66010;52.084;5.412;2023-06-10T02:56:02;9.73;;;4.60;;
65924;SDS011;66010;52.084;5.412;2023-06-10T02:58:28;9.82;;;4.63;;
65924;SDS011;66010;52.084;5.412;2023-06-10T03:00:55;10.55;;;4.55;;
65924;SDS011;66010;52.084;5.412;2023-06-10T03:03:23;10.02;;;4.40;;
65924;SDS011;66010;52.084;5.412;2023-06-10T03:06:02;9.27;;;4.40;;
65924;SDS011;66010;52.084;5.412;2023-06-10T03:08:29;11.70;;;4.72;;
65924;SDS011;66010;52.084;5.412;2023-06-10T03:10:59;10.35;;;4.78;;
65924;SDS011;66010;52.084;5.412;2023-06-10T03:13:26;10.13;;;4.75;;
65924;SDS011;66010;52.084;5.412;2023-06-10T03:15:52;9.82;;;4.82;;
65924;SDS011;66010;52.084;5.412;2023-06-10T03:18:22;11.32;;;4.70;;
65924;SDS011;66010;52.084;5.412;2023-06-10T03:20:49;9.10;;;4.43;;
65924;SDS011;66010;52.084;5.412;2023-06-10T03:23:18;10.02;;;4.60;;
65924;SDS011;66010;52.084;5.412;2023-06-10T03:25:45;10.75;;;4.60;;
65924;SDS011;66010;52.084;5.412;2023-06-10T03:28:15;9.90;;;4.93;;
65924;SDS011;66010;52.084;5.412;2023-06-10T03:30:42;10.98;;;4.28;;
65924;SDS011;66010;52.084;5.412;2023-06-10T03:33:09;9.85;;;4.88;;
65924;SDS011;66010;52.084;5.412;2023-06-10T03:35:36;11.00;;;4.85;;
65924;SDS011;66010;52.084;5.412;2023-06-10T03:38:04;10.25;;;4.70;;
65924;SDS011;66010;52.084;5.412;2023-06-10T03:40:31;11.77;;;4.88;;
65924;SDS011;66010;52.084;5.412;2023-06-10T03:42:58;10.25;;;4.80;;
65924;SDS011;66010;52.084;5.412;2023-06-10T03:45:25;10.07;;;4.43;;
65924;SDS011;66010;52.084;5.412;2023-06-10T03:47:55;12.05;;;5.00;;
65924;SDS011;66010;52.084;5.412;2023-06-10T03:50:28;10.80;;;4.38;;
65924;SDS011;66010;52.084;5.412;2023-06-10T03:52:54;13.55;;;4.63;;
65924;SDS011;66010;52.084;5.412;2023-06-10T03:55:24;12.38;;;4.40;;
65924;SDS011;66010;52.084;5.412;2023-06-10T03:57:50;9.40;;;4.40;;
65924;SDS011;66010;52.084;5.412;2023-06-10T04:00:17;10.80;;;4.43;;
65924;SDS011;66010;52.084;5.412;2023-06-10T04:02:45;9.75;;;4.30;;
65924;SDS011;66010;52.084;5.412;2023-06-10T04:05:28;10.40;;;4.80;;
65924;SDS011;66010;52.084;5.412;2023-06-10T04:07:56;9.57;;;4.60;;
65924;SDS011;66010;52.084;5.412;2023-06-10T04:10:23;9.45;;;4.47;;
65924;SDS011;66010;52.084;5.412;2023-06-10T04:12:49;10.10;;;4.47;;
65924;SDS011;66010;52.084;5.412;2023-06-10T04:15:17;9.75;;;4.57;;
65924;SDS011;66010;52.084;5.412;2023-06-10T04:17:43;10.30;;;4.68;;
65924;SDS011;66010;52.084;5.412;2023-06-10T04:20:11;9.20;;;4.20;;
65924;SDS011;66010;52.084;5.412;2023-06-10T04:22:42;9.88;;;4.72;;
65924;SDS011;66010;52.084;5.412;2023-06-10T04:25:09;10.43;;;4.95;;
65924;SDS011;66010;52.084;5.412;2023-06-10T04:27:37;10.05;;;4.75;;
65924;SDS011;66010;52.084;5.412;2023-06-10T04:30:04;11.35;;;4.35;;
65924;SDS011;66010;52.084;5.412;2023-06-10T04:32:33;11.27;;;4.53;;
65924;SDS011;66010;52.084;5.412;2023-06-10T04:35:00;10.00;;;4.60;;
65924;SDS011;66010;52.084;5.412;2023-06-10T04:37:27;9.73;;;4.20;;
65924;SDS011;66010;52.084;5.412;2023-06-10T04:39:55;10.85;;;4.60;;
65924;SDS011;66010;52.084;5.412;2023-06-10T04:42:22;11.02;;;4.30;;
65924;SDS011;66010;52.084;5.412;2023-06-10T04:44:49;11.38;;;4.53;;
65924;SDS011;66010;52.084;5.412;2023-06-10T04:47:15;9.32;;;4.30;;
65924;SDS011;66010;52.084;5.412;2023-06-10T04:49:44;11.30;;;4.32;;
65924;SDS011;66010;52.084;5.412;2023-06-10T04:52:10;12.50;;;4.43;;
65924;SDS011;66010;52.084;5.412;2023-06-10T04:54:39;9.82;;;4.30;;
65924;SDS011;66010;52.084;5.412;2023-06-10T04:57:06;9.20;;;4.35;;
65924;SDS011;66010;52.084;5.412;2023-06-10T04:59:33;8.50;;;4.10;;
65924;SDS011;66010;52.084;5.412;2023-06-10T05:02:04;10.13;;;4.65;;
65924;SDS011;66010;52.084;5.412;2023-06-10T05:04:31;9.45;;;4.32;;
65924;SDS011;66010;52.084;5.412;2023-06-10T05:06:57;10.75;;;4.40;;
65924;SDS011;66010;52.084;5.412;2023-06-10T05:09:24;8.90;;;4.40;;
65924;SDS011;66010;52.084;5.412;2023-06-10T05:11:52;9.15;;;4.45;;
65924;SDS011;66010;52.084;5.412;2023-06-10T05:14:20;9.82;;;4.55;;
65924;SDS011;66010;52.084;5.412;2023-06-10T05:16:47;10.13;;;4.60;;
65924;SDS011;66010;52.084;5.412;2023-06-10T05:19:14;11.10;;;4.63;;
65924;SDS011;66010;52.084;5.412;2023-06-10T05:21:44;9.48;;;4.60;;
65924;SDS011;66010;52.084;5.412;2023-06-10T05:24:10;9.77;;;4.55;;
65924;SDS011;66010;52.084;5.412;2023-06-10T05:26:37;9.23;;;4.25;;
65924;SDS011;66010;52.084;5.412;2023-06-10T05:29:04;10.40;;;4.20;;
65924;SDS011;66010;52.084;5.412;2023-06-10T05:31:31;12.73;;;4.85;;
65924;SDS011;66010;52.084;5.412;2023-06-10T05:33:58;8.63;;;4.32;;
65924;SDS011;66010;52.084;5.412;2023-06-10T05:36:24;9.15;;;4.30;;
65924;SDS011;66010;52.084;5.412;2023-06-10T05:38:54;12.63;;;5.00;;
65924;SDS011;66010;52.084;5.412;2023-06-10T05:41:20;9.63;;;4.18;;
65924;SDS011;66010;52.084;5.412;2023-06-10T05:43:48;13.20;;;4.57;;
65924;SDS011;66010;52.084;5.412;2023-06-10T05:46:14;11.35;;;4.88;;
65924;SDS011;66010;52.084;5.412;2023-06-10T05:48:41;11.27;;;4.40;;
65924;SDS011;66010;52.084;5.412;2023-06-10T05:51:08;10.50;;;4.85;;
65924;SDS011;66010;52.084;5.412;2023-06-10T05:53:34;10.27;;;4.43;;
65924;SDS011;66010;52.084;5.412;2023-06-10T05:56:01;10.20;;;4.75;;
65924;SDS011;66010;52.084;5.412;2023-06-10T05:58:27;11.23;;;5.28;;
65924;SDS011;66010;52.084;5.412;2023-06-10T06:00:54;9.02;;;4.65;;
65924;SDS011;66010;52.084;5.412;2023-06-10T06:03:20;10.60;;;5.10;;
65924;SDS011;66010;52.084;5.412;2023-06-10T06:05:47;10.77;;;5.18;;
65924;SDS011;66010;52.084;5.412;2023-06-10T06:08:14;12.02;;;5.38;;
65924;SDS011;66010;52.084;5.412;2023-06-10T06:10:44;10.90;;;4.50;;
65924;SDS011;66010;52.084;5.412;2023-06-10T06:13:11;12.68;;;5.20;;
65924;SDS011;66010;52.084;5.412;2023-06-10T06:15:37;12.30;;;5.00;;
65924;SDS011;66010;52.084;5.412;2023-06-10T06:18:04;12.80;;;4.50;;
65924;SDS011;66010;52.084;5.412;2023-06-10T06:20:31;11.48;;;5.38;;
65924;SDS011;66010;52.084;5.412;2023-06-10T06:22:57;11.35;;;4.70;;
65924;SDS011;66010;52.084;5.412;2023-06-10T06:25:24;13.95;;;5.18;;
65924;SDS011;66010;52.084;5.412;2023-06-10T06:27:51;16.13;;;5.13;;
65924;SDS011;66010;52.084;5.412;2023-06-10T06:30:17;10.75;;;5.18;;
65924;SDS011;66010;52.084;5.412;2023-06-10T06:32:44;14.52;;;5.10;;
65924;SDS011;66010;52.084;5.412;2023-06-10T06:35:10;12.55;;;5.07;;
65924;SDS011;66010;52.084;5.412;2023-06-10T06:37:37;10.65;;;5.03;;
65924;SDS011;66010;52.084;5.412;2023-06-10T06:40:30;10.48;;;5.10;;
65924;SDS011;66010;52.084;5.412;2023-06-10T06:42:56;11.77;;;5.38;;
65924;SDS011;66010;52.084;5.412;2023-06-10T06:45:52;12.85;;;5.30;;
65924;SDS011;66010;52.084;5.412;2023-06-10T06:48:18;13.45;;;5.55;;
65924;SDS011;66010;52.084;5.412;2023-06-10T06:50:45;15.07;;;5.47;;
65924;SDS011;66010;52.084;5.412;2023-06-10T06:53:12;13.05;;;5.30;;
65924;SDS011;66010;52.084;5.412;2023-06-10T06:55:39;9.85;;;5.03;;
65924;SDS011;66010;52.084;5.412;2023-06-10T06:58:06;11.57;;;5.32;;
65924;SDS011;66010;52.084;5.412;2023-06-10T07:00:33;11.80;;;5.07;;
65924;SDS011;66010;52.084;5.412;2023-06-10T07:02:59;11.00;;;4.60;;
65924;SDS011;66010;52.084;5.412;2023-06-10T07:05:26;12.20;;;5.00;;
65924;SDS011;66010;52.084;5.412;2023-06-10T07:07:54;10.70;;;5.03;;
65924;SDS011;66010;52.084;5.412;2023-06-10T07:10:22;8.27;;;4.10;;
65924;SDS011;66010;52.084;5.412;2023-06-10T07:12:50;10.48;;;4.57;;
65924;SDS011;66010;52.084;5.412;2023-06-10T07:15:16;10.65;;;4.65;;
65924;SDS011;66010;52.084;5.412;2023-06-10T07:17:43;10.38;;;4.60;;
65924;SDS011;66010;52.084;5.412;2023-06-10T07:20:10;8.98;;;4.60;;
65924;SDS011;66010;52.084;5.412;2023-06-10T07:22:37;9.18;;;4.38;;
65924;SDS011;66010;52.084;5.412;2023-06-10T07:25:05;10.57;;;4.53;;
65924;SDS011;66010;52.084;5.412;2023-06-10T07:27:32;9.52;;;4.47;;
65924;SDS011;66010;52.084;5.412;2023-06-10T07:29:59;8.95;;;4.40;;
65924;SDS011;66010;52.084;5.412;2023-06-10T07:32:27;9.85;;;4.65;;
65924;SDS011;66010;52.084;5.412;2023-06-10T07:34:53;8.50;;;4.15;;
65924;SDS011;66010;52.084;5.412;2023-06-10T07:37:20;9.27;;;4.20;;
65924;SDS011;66010;52.084;5.412;2023-06-10T07:39:47;9.00;;;4.40;;
65924;SDS011;66010;52.084;5.412;2023-06-10T07:42:13;8.88;;;3.70;;
65924;SDS011;66010;52.084;5.412;2023-06-10T07:44:40;8.70;;;3.80;;
65924;SDS011;66010;52.084;5.412;2023-06-10T07:47:06;9.00;;;3.83;;
65924;SDS011;66010;52.084;5.412;2023-06-10T07:49:33;9.55;;;4.10;;
65924;SDS011;66010;52.084;5.412;2023-06-10T07:51:59;9.98;;;4.43;;
65924;SDS011;66010;52.084;5.412;2023-06-10T07:54:26;8.82;;;4.10;;
65924;SDS011;66010;52.084;5.412;2023-06-10T07:56:55;9.73;;;4.03;;
65924;SDS011;66010;52.084;5.412;2023-06-10T07:59:22;8.52;;;4.25;;
65924;SDS011;66010;52.084;5.412;2023-06-10T08:01:48;8.45;;;4.35;;
65924;SDS011;66010;52.084;5.412;2023-06-10T08:04:15;9.30;;;3.90;;
65924;SDS011;66010;52.084;5.412;2023-06-10T08:06:42;8.55;;;4.20;;
65924;SDS011;66010;52.084;5.412;2023-06-10T08:09:08;8.07;;;3.85;;
65924;SDS011;66010;52.084;5.412;2023-06-10T08:11:35;8.88;;;3.88;;
65924;SDS011;66010;52.084;5.412;2023-06-10T08:14:01;8.68;;;3.90;;
65924;SDS011;66010;52.084;5.412;2023-06-10T08:16:28;7.85;;;3.85;;
65924;SDS011;66010;52.084;5.412;2023-06-10T08:18:54;8.60;;;3.95;;
65924;SDS011;66010;52.084;5.412;2023-06-10T08:21:21;9.00;;;4.10;;
65924;SDS011;66010;52.084;5.412;2023-06-10T08:23:47;8.43;;;4.00;;
65924;SDS011;66010;52.084;5.412;2023-06-10T08:26:14;8.13;;;3.90;;
65924;SDS011;66010;52.084;5.412;2023-06-10T08:28:41;8.68;;;4.15;;
65924;SDS011;66010;52.084;5.412;2023-06-10T08:31:07;7.35;;;3.85;;
65924;SDS011;66010;52.084;5.412;2023-06-10T08:33:34;9.80;;;3.83;;
65924;SDS011;66010;52.084;5.412;2023-06-10T08:36:00;8.25;;;3.58;;
65924;SDS011;66010;52.084;5.412;2023-06-10T08:38:27;9.15;;;3.75;;
65924;SDS011;66010;52.084;5.412;2023-06-10T08:40:56;9.02;;;3.85;;
65924;SDS011;66010;52.084;5.412;2023-06-10T08:43:26;7.15;;;3.58;;
65924;SDS011;66010;52.084;5.412;2023-06-10T08:45:55;8.98;;;3.72;;
65924;SDS011;66010;52.084;5.412;2023-06-10T08:48:23;7.30;;;3.53;;
65924;SDS011;66010;52.084;5.412;2023-06-10T08:50:51;8.30;;;4.00;;
65924;SDS011;66010;52.084;5.412;2023-06-10T08:53:18;8.23;;;3.90;;
65924;SDS011;66010;52.084;5.412;2023-06-10T08:55:46;8.02;;;3.65;;
65924;SDS011;66010;52.084;5.412;2023-06-10T08:58:14;9.70;;;3.88;;
65924;SDS011;66010;52.084;5.412;2023-06-10T09:00:41;9.55;;;4.00;;
65924;SDS011;66010;52.084;5.412;2023-06-10T09:03:07;8.57;;;4.22;;
65924;SDS011;66010;52.084;5.412;2023-06-10T09:05:35;10.00;;;3.92;;
65924;SDS011;66010;52.084;5.412;2023-06-10T09:08:08;9.32;;;3.70;;
65924;SDS011;66010;52.084;5.412;2023-06-10T09:10:35;7.75;;;3.83;;
65924;SDS011;66010;52.084;5.412;2023-06-10T09:13:02;7.68;;;3.67;;
65924;SDS011;66010;52.084;5.412;2023-06-10T09:15:28;7.85;;;4.10;;
65924;SDS011;66010;52.084;5.412;2023-06-10T09:17:55;10.70;;;3.80;;
65924;SDS011;66010;52.084;5.412;2023-06-10T09:20:22;10.55;;;4.00;;
65924;SDS011;66010;52.084;5.412;2023-06-10T09:25:16;8.45;;;3.55;;
65924;SDS011;66010;52.084;5.412;2023-06-10T09:27:45;7.25;;;3.50;;
65924;SDS011;66010;52.084;5.412;2023-06-10T09:30:32;9.23;;;3.83;;
65924;SDS011;66010;52.084;5.412;2023-06-10T09:33:00;8.10;;;3.90;;
65924;SDS011;66010;52.084;5.412;2023-06-10T09:35:27;9.50;;;3.88;;
65924;SDS011;66010;52.084;5.412;2023-06-10T09:37:58;7.57;;;3.75;;
65924;SDS011;66010;52.084;5.412;2023-06-10T09:40:25;9.30;;;3.65;;
65924;SDS011;66010;52.084;5.412;2023-06-10T09:45:21;9.25;;;3.83;;
65924;SDS011;66010;52.084;5.412;2023-06-10T09:47:51;9.95;;;3.80;;
65924;SDS011;66010;52.084;5.412;2023-06-10T09:50:18;7.85;;;3.85;;
65924;SDS011;66010;52.084;5.412;2023-06-10T09:52:45;8.60;;;3.60;;
65924;SDS011;66010;52.084;5.412;2023-06-10T09:55:12;8.18;;;4.10;;
65924;SDS011;66010;52.084;5.412;2023-06-10T09:57:38;7.60;;;3.85;;
65924;SDS011;66010;52.084;5.412;2023-06-10T10:00:07;8.35;;;4.13;;
65924;SDS011;66010;52.084;5.412;2023-06-10T10:02:45;6.60;;;3.60;;
65924;SDS011;66010;52.084;5.412;2023-06-10T10:05:16;7.95;;;3.80;;
65924;SDS011;66010;52.084;5.412;2023-06-10T10:07:44;7.90;;;3.63;;
65924;SDS011;66010;52.084;5.412;2023-06-10T10:10:11;7.07;;;3.75;;
65924;SDS011;66010;52.084;5.412;2023-06-10T10:12:39;8.55;;;3.83;;
65924;SDS011;66010;52.084;5.412;2023-06-10T10:15:06;9.68;;;4.05;;
65924;SDS011;66010;52.084;5.412;2023-06-10T10:17:36;7.82;;;3.95;;
65924;SDS011;66010;52.084;5.412;2023-06-10T10:20:04;8.10;;;3.83;;
65924;SDS011;66010;52.084;5.412;2023-06-10T10:22:35;7.47;;;3.78;;
65924;SDS011;66010;52.084;5.412;2023-06-10T10:25:05;7.60;;;3.65;;
65924;SDS011;66010;52.084;5.412;2023-06-10T10:27:44;8.02;;;3.85;;
65924;SDS011;66010;52.084;5.412;2023-06-10T10:30:14;7.15;;;3.47;;
65924;SDS011;66010;52.084;5.412;2023-06-10T10:32:52;7.32;;;3.40;;
65924;SDS011;66010;52.084;5.412;2023-06-10T10:35:24;8.15;;;3.60;;
65924;SDS011;66010;52.084;5.412;2023-06-10T10:37:52;10.18;;;4.35;;
65924;SDS011;66010;52.084;5.412;2023-06-10T10:40:19;11.82;;;3.90;;
65924;SDS011;66010;52.084;5.412;2023-06-10T10:42:47;9.10;;;4.30;;
65924;SDS011;66010;52.084;5.412;2023-06-10T10:45:14;9.18;;;3.83;;
65924;SDS011;66010;52.084;5.412;2023-06-10T10:50:17;7.78;;;4.05;;
65924;SDS011;66010;52.084;5.412;2023-06-10T10:52:52;7.15;;;3.67;;
65924;SDS011;66010;52.084;5.412;2023-06-10T10:55:20;8.00;;;3.60;;
65924;SDS011;66010;52.084;5.412;2023-06-10T11:00:43;7.03;;;3.88;;
65924;SDS011;66010;52.084;5.412;2023-06-10T11:03:14;8.25;;;3.85;;
65924;SDS011;66010;52.084;5.412;2023-06-10T11:05:44;8.98;;;4.03;;
65924;SDS011;66010;52.084;5.412;2023-06-10T11:08:14;7.32;;;3.70;;
65924;SDS011;66010;52.084;5.412;2023-06-10T11:10:42;7.47;;;3.80;;
65924;SDS011;66010;52.084;5.412;2023-06-10T11:13:18;8.13;;;3.65;;
65924;SDS011;66010;52.084;5.412;2023-06-10T11:15:49;7.32;;;3.28;;
65924;SDS011;66010;52.084;5.412;2023-06-10T11:18:23;6.78;;;3.50;;
65924;SDS011;66010;52.084;5.412;2023-06-10T11:20:51;7.57;;;3.53;;
65924;SDS011;66010;52.084;5.412;2023-06-10T11:25:51;7.47;;;3.72;;
65924;SDS011;66010;52.084;5.412;2023-06-10T11:28:18;6.68;;;3.20;;
65924;SDS011;66010;52.084;5.412;2023-06-10T11:30:49;7.15;;;3.40;;
65924;SDS011;66010;52.084;5.412;2023-06-10T11:33:23;6.55;;;3.20;;
65924;SDS011;66010;52.084;5.412;2023-06-10T11:35:49;7.03;;;3.42;;
65924;SDS011;66010;52.084;5.412;2023-06-10T11:38:16;6.28;;;3.38;;
65924;SDS011;66010;52.084;5.412;2023-06-10T11:40:51;7.68;;;3.40;;
65924;SDS011;66010;52.084;5.412;2023-06-10T11:43:18;6.43;;;3.35;;
65924;SDS011;66010;52.084;5.412;2023-06-10T11:45:45;5.93;;;3.30;;
65924;SDS011;66010;52.084;5.412;2023-06-10T11:48:12;7.65;;;3.50;;
65924;SDS011;66010;52.084;5.412;2023-06-10T11:53:08;6.57;;;3.35;;
65924;SDS011;66010;52.084;5.412;2023-06-10T11:55:44;6.53;;;3.25;;
65924;SDS011;66010;52.084;5.412;2023-06-10T11:58:19;6.80;;;3.30;;
65924;SDS011;66010;52.084;5.412;2023-06-10T12:00:53;6.32;;;3.20;;
65924;SDS011;66010;52.084;5.412;2023-06-10T12:03:20;7.40;;;3.60;;
65924;SDS011;66010;52.084;5.412;2023-06-10T12:08:24;8.18;;;3.47;;
65924;SDS011;66010;52.084;5.412;2023-06-10T12:13:18;6.78;;;3.45;;
65924;SDS011;66010;52.084;5.412;2023-06-10T12:15:45;7.78;;;3.20;;
65924;SDS011;66010;52.084;5.412;2023-06-10T12:18:33;8.00;;;3.78;;
65924;SDS011;66010;52.084;5.412;2023-06-10T12:20:58;6.90;;;3.33;;
65924;SDS011;66010;52.084;5.412;2023-06-10T12:23:25;8.32;;;3.80;;
65924;SDS011;66010;52.084;5.412;2023-06-10T12:25:53;7.30;;;3.85;;
65924;SDS011;66010;52.084;5.412;2023-06-10T12:28:23;6.60;;;3.67;;
65924;SDS011;66010;52.084;5.412;2023-06-10T12:30:49;6.65;;;3.45;;
65924;SDS011;66010;52.084;5.412;2023-06-10T12:33:19;7.15;;;3.25;;
65924;SDS011;66010;52.084;5.412;2023-06-10T12:35:50;6.93;;;3.58;;
65924;SDS011;66010;52.084;5.412;2023-06-10T12:38:24;7.00;;;3.28;;
65924;SDS011;66010;52.084;5.412;2023-06-10T12:40:50;6.80;;;3.47;;
65924;SDS011;66010;52.084;5.412;2023-06-10T12:43:20;6.22;;;3.33;;
65924;SDS011;66010;52.084;5.412;2023-06-10T12:45:47;6.68;;;3.35;;
65924;SDS011;66010;52.084;5.412;2023-06-10T12:48:21;9.23;;;3.70;;
65924;SDS011;66010;52.084;5.412;2023-06-10T12:50:51;6.68;;;3.70;;
65924;SDS011;66010;52.084;5.412;2023-06-10T12:53:18;7.07;;;3.65;;
65924;SDS011;66010;52.084;5.412;2023-06-10T12:55:45;7.55;;;3.60;;
65924;SDS011;66010;52.084;5.412;2023-06-10T12:58:12;6.45;;;3.42;;
65924;SDS011;66010;52.084;5.412;2023-06-10T13:00:39;7.05;;;3.60;;
65924;SDS011;66010;52.084;5.412;2023-06-10T13:03:07;7.63;;;3.88;;
65924;SDS011;66010;52.084;5.412;2023-06-10T13:05:34;8.45;;;3.83;;
65924;SDS011;66010;52.084;5.412;2023-06-10T13:08:03;7.47;;;3.75;;
65924;SDS011;66010;52.084;5.412;2023-06-10T13:10:30;5.93;;;3.33;;
65924;SDS011;66010;52.084;5.412;2023-06-10T13:12:57;7.00;;;3.78;;
65924;SDS011;66010;52.084;5.412;2023-06-10T13:15:23;7.90;;;3.78;;
65924;SDS011;66010;52.084;5.412;2023-06-10T13:17:52;9.02;;;3.83;;
65924;SDS011;66010;52.084;5.412;2023-06-10T13:20:19;6.55;;;3.63;;
65924;SDS011;66010;52.084;5.412;2023-06-10T13:22:47;6.53;;;3.63;;
65924;SDS011;66010;52.084;5.412;2023-06-10T13:25:14;7.40;;;3.85;;
65924;SDS011;66010;52.084;5.412;2023-06-10T13:27:41;7.03;;;3.63;;
65924;SDS011;66010;52.084;5.412;2023-06-10T13:30:09;7.43;;;3.63;;
65924;SDS011;66010;52.084;5.412;2023-06-10T13:32:36;7.85;;;3.50;;
65924;SDS011;66010;52.084;5.412;2023-06-10T13:35:03;7.13;;;3.25;;
65924;SDS011;66010;52.084;5.412;2023-06-10T13:37:30;8.02;;;4.07;;
65924;SDS011;66010;52.084;5.412;2023-06-10T13:39:57;7.25;;;3.63;;
65924;SDS011;66010;52.084;5.412;2023-06-10T13:42:23;6.28;;;3.58;;
65924;SDS011;66010;52.084;5.412;2023-06-10T13:44:52;6.47;;;3.47;;
65924;SDS011;66010;52.084;5.412;2023-06-10T13:47:19;7.72;;;3.70;;
65924;SDS011;66010;52.084;5.412;2023-06-10T13:49:47;6.65;;;3.60;;
65924;SDS011;66010;52.084;5.412;2023-06-10T13:52:13;6.45;;;3.63;;
65924;SDS011;66010;52.084;5.412;2023-06-10T13:54:40;6.90;;;3.78;;
65924;SDS011;66010;52.084;5.412;2023-06-10T13:57:07;9.95;;;4.15;;
65924;SDS011;66010;52.084;5.412;2023-06-10T13:59:33;6.55;;;3.60;;
65924;SDS011;66010;52.084;5.412;2023-06-10T14:04:27;6.90;;;3.67;;
65924;SDS011;66010;52.084;5.412;2023-06-10T14:06:54;6.75;;;3.70;;
65924;SDS011;66010;52.084;5.412;2023-06-10T14:09:21;6.97;;;3.53;;
65924;SDS011;66010;52.084;5.412;2023-06-10T14:11:48;6.45;;;3.85;;
65924;SDS011;66010;52.084;5.412;2023-06-10T14:14:15;7.05;;;3.70;;
65924;SDS011;66010;52.084;5.412;2023-06-10T14:16:41;7.85;;;3.90;;
65924;SDS011;66010;52.084;5.412;2023-06-10T14:19:09;7.47;;;3.83;;
65924;SDS011;66010;52.084;5.412;2023-06-10T14:21:36;8.75;;;3.83;;
65924;SDS011;66010;52.084;5.412;2023-06-10T14:24:02;6.93;;;3.42;;
65924;SDS011;66010;52.084;5.412;2023-06-10T14:26:29;8.50;;;4.10;;
65924;SDS011;66010;52.084;5.412;2023-06-10T14:28:56;8.10;;;3.72;;
65924;SDS011;66010;52.084;5.412;2023-06-10T14:31:22;7.78;;;3.90;;
65924;SDS011;66010;52.084;5.412;2023-06-10T14:33:49;7.75;;;3.75;;
65924;SDS011;66010;52.084;5.412;2023-06-10T14:36:15;7.60;;;3.90;;
65924;SDS011;66010;52.084;5.412;2023-06-10T14:41:09;7.63;;;3.70;;
65924;SDS011;66010;52.084;5.412;2023-06-10T14:43:35;7.00;;;3.72;;
65924;SDS011;66010;52.084;5.412;2023-06-10T14:46:02;6.40;;;3.60;;
65924;SDS011;66010;52.084;5.412;2023-06-10T14:48:29;6.95;;;3.80;;
65924;SDS011;66010;52.084;5.412;2023-06-10T14:50:55;5.88;;;3.60;;
65924;SDS011;66010;52.084;5.412;2023-06-10T14:53:22;6.38;;;3.58;;
65924;SDS011;66010;52.084;5.412;2023-06-10T14:55:48;6.63;;;3.67;;
65924;SDS011;66010;52.084;5.412;2023-06-10T14:58:15;7.90;;;3.95;;
65924;SDS011;66010;52.084;5.412;2023-06-10T15:00:41;7.50;;;3.60;;
65924;SDS011;66010;52.084;5.412;2023-06-10T15:03:08;6.47;;;3.70;;
65924;SDS011;66010;52.084;5.412;2023-06-10T15:05:34;7.53;;;3.80;;
65924;SDS011;66010;52.084;5.412;2023-06-10T15:08:03;7.25;;;3.72;;
65924;SDS011;66010;52.084;5.412;2023-06-10T15:10:30;6.82;;;3.65;;
65924;SDS011;66010;52.084;5.412;2023-06-10T15:12:57;6.13;;;3.63;;
65924;SDS011;66010;52.084;5.412;2023-06-10T15:15:24;8.15;;;3.80;;
65924;SDS011;66010;52.084;5.412;2023-06-10T15:17:52;7.20;;;4.53;;